sensor_id;sensor_type;location;lat;lon;timestamp;pressure;altitude;pressure_sealevel;temperature;humidity
53932;BME280;39844;52.496;13.482;2022-12-10T00:00:53;100733.78;;;-1.18;95.32
53932;BME280;39844;52.496;13.482;2022-12-10T00:03:18;100726.06;;;-1.18;95.63
53932;BME280;39844;52.496;13.482;2022-12-10T00:05:44;100724.22;;;-1.21;95.37
53932;BME280;39844;52.496;13.482;2022-12-10T00:08:09;100724.97;;;-1.23;95.36
53932;BME280;39844;52.496;13.482;2022-12-10T00:10:39;100735.28;;;-1.23;95.16
53932;BME280;39844;52.496;13.482;2022-12-10T00:13:04;100730.81;;;-1.27;95.34
53932;BME280;39844;52.496;13.482;2022-12-10T00:15:29;100728.91;;;-1.32;95.64
53932;BME280;39844;52.496;13.482;2022-12-10T00:17:55;100729.66;;;-1.34;95.77
53932;BME280;39844;52.496;13.482;2022-12-10T00:20:20;100725.25;;;-1.37;95.84
53932;BME280;39844;52.496;13.482;2022-12-10T00:22:45;100730.41;;;-1.37;96.40
53932;BME280;39844;52.496;13.482;2022-12-10T00:25:10;100732.97;;;-1.37;96.31
53932;BME280;39844;52.496;13.482;2022-12-10T00:27:36;100727.84;;;-1.37;96.51
53932;BME280;39844;52.496;13.482;2022-12-10T00:30:01;100726.09;;;-1.38;96.62
53932;BME280;39844;52.496;13.482;2022-12-10T00:32:27;100729.47;;;-1.39;96.71
53932;BME280;39844;52.496;13.482;2022-12-10T00:34:52;100726.94;;;-1.37;96.99
53932;BME280;39844;52.496;13.482;2022-12-10T00:37:17;100730.41;;;-1.37;97.00
53932;BME280;39844;52.496;13.482;2022-12-10T00:39:42;100743.41;;;-1.34;97.17
53932;BME280;39844;52.496;13.482;2022-12-10T00:42:08;100737.38;;;-1.34;96.99
53932;BME280;39844;52.496;13.482;2022-12-10T00:44:33;100739.06;;;-1.35;96.61
53932;BME280;39844;52.496;13.482;2022-12-10T00:46:58;100741.63;;;-1.35;96.51
53932;BME280;39844;52.496;13.482;2022-12-10T00:49:24;100741.63;;;-1.35;96.70
53932;BME280;39844;52.496;13.482;2022-12-10T00:51:50;100739.06;;;-1.35;96.62
53932;BME280;39844;52.496;13.482;2022-12-10T00:54:15;100740.78;;;-1.35;96.56
53932;BME280;39844;52.496;13.482;2022-12-10T00:56:41;100742.53;;;-1.34;96.73
53932;BME280;39844;52.496;13.482;2022-12-10T00:59:06;100752.06;;;-1.32;96.92
53932;BME280;39844;52.496;13.482;2022-12-10T01:01:37;100740.03;;;-1.33;96.91
53932;BME280;39844;52.496;13.482;2022-12-10T01:04:06;100746.19;;;-1.29;97.03
53932;BME280;39844;52.496;13.482;2022-12-10T01:06:36;100742.06;;;-1.25;97.41
53932;BME280;39844;52.496;13.482;2022-12-10T01:09:04;100745.56;;;-1.23;97.11
53932;BME280;39844;52.496;13.482;2022-12-10T01:11:32;100740.41;;;-1.23;96.85
53932;BME280;39844;52.496;13.482;2022-12-10T01:13:59;100740.41;;;-1.23;96.91
53932;BME280;39844;52.496;13.482;2022-12-10T01:16:25;100749.03;;;-1.23;96.63
53932;BME280;39844;52.496;13.482;2022-12-10T01:18:55;100743.06;;;-1.22;96.57
53932;BME280;39844;52.496;13.482;2022-12-10T01:21:21;100754.22;;;-1.21;96.72
53932;BME280;39844;52.496;13.482;2022-12-10T01:23:48;100747.41;;;-1.21;96.60
53932;BME280;39844;52.496;13.482;2022-12-10T01:26:20;100744.78;;;-1.22;96.24
53932;BME280;39844;52.496;13.482;2022-12-10T01:28:47;100744.78;;;-1.22;96.28
53932;BME280;39844;52.496;13.482;2022-12-10T01:31:18;100745.63;;;-1.22;96.26
53932;BME280;39844;52.496;13.482;2022-12-10T01:33:44;100744.78;;;-1.22;95.90
53932;BME280;39844;52.496;13.482;2022-12-10T01:36:31;100748.94;;;-1.24;95.86
53932;BME280;39844;52.496;13.482;2022-12-10T01:38:57;100740.28;;;-1.27;95.57
53932;BME280;39844;52.496;13.482;2022-12-10T01:41:30;100741.91;;;-1.29;95.69
53932;BME280;39844;52.496;13.482;2022-12-10T01:46:22;100738.47;;;-1.29;96.09
53932;BME280;39844;52.496;13.482;2022-12-10T01:48:47;100735.75;;;-1.32;95.82
53932;BME280;39844;52.496;13.482;2022-12-10T01:51:14;100742.47;;;-1.36;95.98
53932;BME280;39844;52.496;13.482;2022-12-10T01:53:41;100743.28;;;-1.37;95.90
53932;BME280;39844;52.496;13.482;2022-12-10T01:56:09;100743.22;;;-1.38;95.84
53932;BME280;39844;52.496;13.482;2022-12-10T01:58:35;100738.97;;;-1.38;96.16
53932;BME280;39844;52.496;13.482;2022-12-10T02:06:57;100737.88;;;-1.43;95.90
53932;BME280;39844;52.496;13.482;2022-12-10T02:12:49;100737.75;;;-1.46;95.92
53932;BME280;39844;52.496;13.482;2022-12-10T02:15:22;100738.50;;;-1.48;95.63
53932;BME280;39844;52.496;13.482;2022-12-10T02:17:55;100733.19;;;-1.51;95.86
53932;BME280;39844;52.496;13.482;2022-12-10T02:20:29;100734.09;;;-1.51;96.00
53932;BME280;39844;52.496;13.482;2022-12-10T02:23:04;100731.44;;;-1.52;96.12
53932;BME280;39844;52.496;13.482;2022-12-10T02:31:06;100721.50;;;-1.64;96.17
53932;BME280;39844;52.496;13.482;2022-12-10T02:33:37;100730.84;;;-1.66;95.89
53932;BME280;39844;52.496;13.482;2022-12-10T02:36:05;100725.56;;;-1.69;96.16
53932;BME280;39844;52.496;13.482;2022-12-10T02:38:34;100714.22;;;-1.72;96.28
53932;BME280;39844;52.496;13.482;2022-12-10T02:41:05;100724.47;;;-1.74;96.46
53932;BME280;39844;52.496;13.482;2022-12-10T02:43:31;100728.66;;;-1.76;96.52
53932;BME280;39844;52.496;13.482;2022-12-10T02:45:59;100725.94;;;-1.79;96.73
53932;BME280;39844;52.496;13.482;2022-12-10T02:48:28;100729.28;;;-1.81;96.79
53932;BME280;39844;52.496;13.482;2022-12-10T02:50:53;100729.19;;;-1.83;96.87
53932;BME280;39844;52.496;13.482;2022-12-10T02:53:18;100732.59;;;-1.84;97.15
53932;BME280;39844;52.496;13.482;2022-12-10T03:04:10;100732.38;;;-1.88;97.56
53932;BME280;39844;52.496;13.482;2022-12-10T03:06:46;100732.28;;;-1.90;97.77
53932;BME280;39844;52.496;13.482;2022-12-10T03:09:22;100733.97;;;-1.91;97.71
53932;BME280;39844;52.496;13.482;2022-12-10T03:12:03;100745.97;;;-1.91;97.99
53932;BME280;39844;52.496;13.482;2022-12-10T03:14:32;100739.94;;;-1.92;97.93
53932;BME280;39844;52.496;13.482;2022-12-10T03:17:00;100745.97;;;-1.91;98.15
53932;BME280;39844;52.496;13.482;2022-12-10T03:19:31;100744.22;;;-1.92;98.23
53932;BME280;39844;52.496;13.482;2022-12-10T03:21:59;100744.22;;;-1.92;98.30
53932;BME280;39844;52.496;13.482;2022-12-10T03:24:26;100745.88;;;-1.93;98.44
53932;BME280;39844;52.496;13.482;2022-12-10T03:26:52;100739.84;;;-1.93;98.48
53932;BME280;39844;52.496;13.482;2022-12-10T03:29:32;100740.75;;;-1.93;98.56
53932;BME280;39844;52.496;13.482;2022-12-10T03:31:59;100735.56;;;-1.94;98.43
53932;BME280;39844;52.496;13.482;2022-12-10T03:34:25;100735.56;;;-1.94;98.58
53932;BME280;39844;52.496;13.482;2022-12-10T03:36:51;100736.44;;;-1.94;98.85
53932;BME280;39844;52.496;13.482;2022-12-10T03:39:17;100730.41;;;-1.94;98.74
53932;BME280;39844;52.496;13.482;2022-12-10T03:41:42;100732.16;;;-1.93;98.57
53932;BME280;39844;52.496;13.482;2022-12-10T03:44:08;100721.84;;;-1.93;98.84
53932;BME280;39844;52.496;13.482;2022-12-10T03:46:33;100727.88;;;-1.93;98.84
53932;BME280;39844;52.496;13.482;2022-12-10T03:49:00;100735.69;;;-1.91;98.88
53932;BME280;39844;52.496;13.482;2022-12-10T03:51:26;100733.19;;;-1.89;98.90
53932;BME280;39844;52.496;13.482;2022-12-10T03:53:51;100737.59;;;-1.87;98.94
53932;BME280;39844;52.496;13.482;2022-12-10T03:56:17;100733.31;;;-1.86;98.89
53932;BME280;39844;52.496;13.482;2022-12-10T03:58:43;100736.84;;;-1.84;98.83
53932;BME280;39844;52.496;13.482;2022-12-10T04:01:08;100742.88;;;-1.84;98.57
53932;BME280;39844;52.496;13.482;2022-12-10T04:03:35;100748.16;;;-1.81;98.77
53932;BME280;39844;52.496;13.482;2022-12-10T04:06:05;100750.78;;;-1.79;98.67
53932;BME280;39844;52.496;13.482;2022-12-10T04:08:31;100747.53;;;-1.75;98.86
53932;BME280;39844;52.496;13.482;2022-12-10T04:11:08;100745.03;;;-1.74;98.87
53932;BME280;39844;52.496;13.482;2022-12-10T04:13:35;100746.94;;;-1.70;98.79
53932;BME280;39844;52.496;13.482;2022-12-10T04:16:01;100752.22;;;-1.67;98.81
53932;BME280;39844;52.496;13.482;2022-12-10T04:18:26;100752.31;;;-1.65;98.44
53932;BME280;39844;52.496;13.482;2022-12-10T04:20:52;100743.00;;;-1.62;98.40
53932;BME280;39844;52.496;13.482;2022-12-10T04:23:17;100743.97;;;-1.60;98.31
53932;BME280;39844;52.496;13.482;2022-12-10T04:25:42;100740.59;;;-1.59;98.17
53932;BME280;39844;52.496;13.482;2022-12-10T04:28:08;100738.91;;;-1.58;98.15
53932;BME280;39844;52.496;13.482;2022-12-10T04:30:33;100738.16;;;-1.56;98.05
53932;BME280;39844;52.496;13.482;2022-12-10T04:32:58;100739.88;;;-1.55;98.02
53932;BME280;39844;52.496;13.482;2022-12-10T04:35:24;100741.72;;;-1.52;97.87
53932;BME280;39844;52.496;13.482;2022-12-10T04:37:49;100744.38;;;-1.51;97.74
53932;BME280;39844;52.496;13.482;2022-12-10T04:40:14;100742.75;;;-1.49;97.77
53932;BME280;39844;52.496;13.482;2022-12-10T04:42:40;100751.41;;;-1.47;97.86
53932;BME280;39844;52.496;13.482;2022-12-10T04:45:05;100744.63;;;-1.45;97.69
53932;BME280;39844;52.496;13.482;2022-12-10T04:47:31;100751.56;;;-1.44;97.70
53932;BME280;39844;52.496;13.482;2022-12-10T04:49:56;100753.31;;;-1.43;97.61
53932;BME280;39844;52.496;13.482;2022-12-10T04:52:21;100754.28;;;-1.41;97.76
53932;BME280;39844;52.496;13.482;2022-12-10T04:54:47;100749.16;;;-1.39;97.54
53932;BME280;39844;52.496;13.482;2022-12-10T04:57:12;100756.97;;;-1.38;97.55
53932;BME280;39844;52.496;13.482;2022-12-10T04:59:37;100747.53;;;-1.37;97.29
53932;BME280;39844;52.496;13.482;2022-12-10T05:02:04;100757.09;;;-1.35;97.24
53932;BME280;39844;52.496;13.482;2022-12-10T05:04:30;100755.59;;;-1.30;97.38
53932;BME280;39844;52.496;13.482;2022-12-10T05:06:55;100753.09;;;-1.28;97.23
53932;BME280;39844;52.496;13.482;2022-12-10T05:09:20;100754.84;;;-1.27;97.15
53932;BME280;39844;52.496;13.482;2022-12-10T05:11:46;100757.50;;;-1.25;97.23
53932;BME280;39844;52.496;13.482;2022-12-10T05:14:12;100761.03;;;-1.23;97.00
53932;BME280;39844;52.496;13.482;2022-12-10T05:16:38;100761.03;;;-1.23;96.74
53932;BME280;39844;52.496;13.482;2022-12-10T05:19:03;100759.38;;;-1.21;97.03
53932;BME280;39844;52.496;13.482;2022-12-10T05:21:29;100772.41;;;-1.18;97.10
53932;BME280;39844;52.496;13.482;2022-12-10T05:23:54;100761.34;;;-1.16;97.10
53932;BME280;39844;52.496;13.482;2022-12-10T05:26:22;100762.25;;;-1.15;96.64
53932;BME280;39844;52.496;13.482;2022-12-10T05:28:51;100773.47;;;-1.13;96.22
53932;BME280;39844;52.496;13.482;2022-12-10T05:31:22;100762.38;;;-1.12;95.72
53932;BME280;39844;52.496;13.482;2022-12-10T05:33:48;100765.09;;;-1.09;95.90
53932;BME280;39844;52.496;13.482;2022-12-10T05:36:17;100763.44;;;-1.07;95.61
53932;BME280;39844;52.496;13.482;2022-12-10T05:38:43;100770.34;;;-1.06;95.33
53932;BME280;39844;52.496;13.482;2022-12-10T05:41:13;100769.69;;;-1.02;94.94
53932;BME280;39844;52.496;13.482;2022-12-10T05:43:40;100772.25;;;-1.02;94.68
53932;BME280;39844;52.496;13.482;2022-12-10T05:46:08;100770.63;;;-1.00;94.39
53932;BME280;39844;52.496;13.482;2022-12-10T05:48:35;100769.81;;;-0.99;94.00
53932;BME280;39844;52.496;13.482;2022-12-10T05:51:09;100774.28;;;-0.95;94.35
53932;BME280;39844;52.496;13.482;2022-12-10T05:53:35;100766.59;;;-0.94;94.26
53932;BME280;39844;52.496;13.482;2022-12-10T05:56:03;100773.53;;;-0.93;93.77
53932;BME280;39844;52.496;13.482;2022-12-10T05:58:29;100771.00;;;-0.91;93.81
53932;BME280;39844;52.496;13.482;2022-12-10T06:00:56;100766.72;;;-0.91;93.28
53932;BME280;39844;52.496;13.482;2022-12-10T06:03:21;100768.41;;;-0.91;92.93
53932;BME280;39844;52.496;13.482;2022-12-10T06:05:46;100765.09;;;-0.89;92.94
53932;BME280;39844;52.496;13.482;2022-12-10T06:08:12;100772.91;;;-0.87;92.61
53932;BME280;39844;52.496;13.482;2022-12-10T06:10:37;100777.22;;;-0.86;92.83
53932;BME280;39844;52.496;13.482;2022-12-10T06:13:03;100767.88;;;-0.84;92.51
53932;BME280;39844;52.496;13.482;2022-12-10T06:15:29;100764.41;;;-0.85;91.85
53932;BME280;39844;52.496;13.482;2022-12-10T06:17:55;100763.47;;;-0.87;91.59
53932;BME280;39844;52.496;13.482;2022-12-10T06:20:22;100765.31;;;-0.84;91.33
53932;BME280;39844;52.496;13.482;2022-12-10T06:22:47;100767.03;;;-0.83;91.30
53932;BME280;39844;52.496;13.482;2022-12-10T06:25:13;100768.00;;;-0.81;91.54
53932;BME280;39844;52.496;13.482;2022-12-10T06:27:38;100768.88;;;-0.81;91.02
53932;BME280;39844;52.496;13.482;2022-12-10T06:30:04;100774.97;;;-0.79;91.20
53932;BME280;39844;52.496;13.482;2022-12-10T06:32:30;100771.59;;;-0.78;91.01
53932;BME280;39844;52.496;13.482;2022-12-10T06:34:55;100781.09;;;-0.77;90.89
53932;BME280;39844;52.496;13.482;2022-12-10T06:37:20;100776.72;;;-0.78;90.55
53932;BME280;39844;52.496;13.482;2022-12-10T06:39:46;100786.09;;;-0.80;89.80
53932;BME280;39844;52.496;13.482;2022-12-10T06:42:11;100778.28;;;-0.81;89.71
53932;BME280;39844;52.496;13.482;2022-12-10T06:44:36;100798.09;;;-0.80;89.36
53932;BME280;39844;52.496;13.482;2022-12-10T06:47:01;100791.25;;;-0.80;89.35
53932;BME280;39844;52.496;13.482;2022-12-10T06:49:27;100798.91;;;-0.81;89.02
53932;BME280;39844;52.496;13.482;2022-12-10T06:51:52;100788.69;;;-0.80;89.14
53932;BME280;39844;52.496;13.482;2022-12-10T06:54:18;100800.69;;;-0.80;88.82
53932;BME280;39844;52.496;13.482;2022-12-10T06:56:43;100800.69;;;-0.80;88.92
53932;BME280;39844;52.496;13.482;2022-12-10T06:59:08;100805.81;;;-0.80;88.81
53932;BME280;39844;52.496;13.482;2022-12-10T07:01:34;100805.88;;;-0.79;88.34
53932;BME280;39844;52.496;13.482;2022-12-10T07:03:59;100802.44;;;-0.79;88.51
53932;BME280;39844;52.496;13.482;2022-12-10T07:06:25;100802.44;;;-0.79;88.32
53932;BME280;39844;52.496;13.482;2022-12-10T07:08:51;100811.13;;;-0.77;88.45
53932;BME280;39844;52.496;13.482;2022-12-10T07:11:19;100805.03;;;-0.79;87.89
53932;BME280;39844;52.496;13.482;2022-12-10T07:13:44;100814.50;;;-0.78;88.23
53932;BME280;39844;52.496;13.482;2022-12-10T07:16:25;100811.91;;;-0.78;88.10
53932;BME280;39844;52.496;13.482;2022-12-10T07:18:51;100817.06;;;-0.78;87.95
53932;BME280;39844;52.496;13.482;2022-12-10T07:21:25;100817.97;;;-0.78;88.26
53932;BME280;39844;52.496;13.482;2022-12-10T07:23:53;100811.13;;;-0.77;87.89
53932;BME280;39844;52.496;13.482;2022-12-10T07:26:19;100817.03;;;-0.80;87.66
53932;BME280;39844;52.496;13.482;2022-12-10T07:28:45;100822.09;;;-0.81;87.75
53932;BME280;39844;52.496;13.482;2022-12-10T07:31:11;100813.56;;;-0.80;87.99
53932;BME280;39844;52.496;13.482;2022-12-10T07:33:37;100817.81;;;-0.81;87.78
53932;BME280;39844;52.496;13.482;2022-12-10T07:36:04;100810.09;;;-0.81;87.79
53932;BME280;39844;52.496;13.482;2022-12-10T07:38:29;100820.41;;;-0.81;87.21
53932;BME280;39844;52.496;13.482;2022-12-10T07:40:55;100828.13;;;-0.81;87.28
53932;BME280;39844;52.496;13.482;2022-12-10T07:43:20;100825.50;;;-0.82;87.29
53932;BME280;39844;52.496;13.482;2022-12-10T07:45:45;100836.59;;;-0.83;87.15
53932;BME280;39844;52.496;13.482;2022-12-10T07:48:10;100830.66;;;-0.82;87.50
53932;BME280;39844;52.496;13.482;2022-12-10T07:50:36;100834.03;;;-0.83;87.14
53932;BME280;39844;52.496;13.482;2022-12-10T07:53:02;100836.59;;;-0.83;87.13
53932;BME280;39844;52.496;13.482;2022-12-10T07:55:28;100834.88;;;-0.84;87.06
53932;BME280;39844;52.496;13.482;2022-12-10T07:57:53;100830.50;;;-0.85;87.12
53932;BME280;39844;52.496;13.482;2022-12-10T08:00:18;100844.34;;;-0.83;87.41
53932;BME280;39844;52.496;13.482;2022-12-10T08:02:43;100840.03;;;-0.84;87.19
53932;BME280;39844;52.496;13.482;2022-12-10T08:05:09;100843.53;;;-0.82;87.60
53932;BME280;39844;52.496;13.482;2022-12-10T08:07:34;100841.91;;;-0.80;87.27
53932;BME280;39844;52.496;13.482;2022-12-10T08:10:00;100853.09;;;-0.80;86.84
53932;BME280;39844;52.496;13.482;2022-12-10T08:12:25;100852.19;;;-0.80;87.02
53932;BME280;39844;52.496;13.482;2022-12-10T08:14:50;100850.50;;;-0.80;87.22
53932;BME280;39844;52.496;13.482;2022-12-10T08:17:16;100848.94;;;-0.76;87.26
53932;BME280;39844;52.496;13.482;2022-12-10T08:19:41;100859.38;;;-0.73;87.65
53932;BME280;39844;52.496;13.482;2022-12-10T08:22:07;100851.72;;;-0.72;87.29
53932;BME280;39844;52.496;13.482;2022-12-10T08:24:32;100854.22;;;-0.73;86.69
53932;BME280;39844;52.496;13.482;2022-12-10T08:26:58;100858.63;;;-0.71;87.25
53932;BME280;39844;52.496;13.482;2022-12-10T08:29:23;100861.38;;;-0.66;87.56
53932;BME280;39844;52.496;13.482;2022-12-10T08:31:48;100867.53;;;-0.64;87.51
53932;BME280;39844;52.496;13.482;2022-12-10T08:34:16;100861.66;;;-0.60;87.04
53932;BME280;39844;52.496;13.482;2022-12-10T08:36:42;100869.41;;;-0.60;86.84
53932;BME280;39844;52.496;13.482;2022-12-10T08:39:07;100868.72;;;-0.56;87.34
53932;BME280;39844;52.496;13.482;2022-12-10T08:41:33;100855.84;;;-0.56;86.95
53932;BME280;39844;52.496;13.482;2022-12-10T08:43:58;100864.50;;;-0.54;86.92
53932;BME280;39844;52.496;13.482;2022-12-10T08:46:23;100857.78;;;-0.50;87.26
53932;BME280;39844;52.496;13.482;2022-12-10T08:48:49;100863.81;;;-0.50;86.87
53932;BME280;39844;52.496;13.482;2022-12-10T08:51:16;100871.63;;;-0.48;86.79
53932;BME280;39844;52.496;13.482;2022-12-10T08:53:42;100870.00;;;-0.46;86.89
53932;BME280;39844;52.496;13.482;2022-12-10T08:56:07;100877.63;;;-0.48;86.47
53932;BME280;39844;52.496;13.482;2022-12-10T08:58:33;100876.84;;;-0.47;86.83
53932;BME280;39844;52.496;13.482;2022-12-10T09:00:58;100874.25;;;-0.47;86.95
53932;BME280;39844;52.496;13.482;2022-12-10T09:03:24;100875.06;;;-0.48;86.40
53932;BME280;39844;52.496;13.482;2022-12-10T09:05:49;100878.47;;;-0.49;86.42
53932;BME280;39844;52.496;13.482;2022-12-10T09:08:15;100882.78;;;-0.48;86.58
53932;BME280;39844;52.496;13.482;2022-12-10T09:10:41;100886.22;;;-0.49;86.49
53932;BME280;39844;52.496;13.482;2022-12-10T09:13:07;100879.41;;;-0.47;86.99
53932;BME280;39844;52.496;13.482;2022-12-10T09:15:32;100882.94;;;-0.45;87.13
53932;BME280;39844;52.496;13.482;2022-12-10T09:17:57;100885.66;;;-0.42;87.37
53932;BME280;39844;52.496;13.482;2022-12-10T09:20:23;100891.75;;;-0.40;87.10
53932;BME280;39844;52.496;13.482;2022-12-10T09:22:48;100887.59;;;-0.36;87.34
53932;BME280;39844;52.496;13.482;2022-12-10T09:25:14;100883.34;;;-0.36;86.67
53932;BME280;39844;52.496;13.482;2022-12-10T09:27:39;100888.53;;;-0.34;86.61
53932;BME280;39844;52.496;13.482;2022-12-10T09:30:05;100891.06;;;-0.36;86.33
53932;BME280;39844;52.496;13.482;2022-12-10T09:32:30;100885.06;;;-0.35;86.47
53932;BME280;39844;52.496;13.482;2022-12-10T09:34:56;100885.03;;;-0.36;86.40
53932;BME280;39844;52.496;13.482;2022-12-10T09:37:21;100887.75;;;-0.33;87.01
53932;BME280;39844;52.496;13.482;2022-12-10T09:39:46;100889.56;;;-0.31;86.72
53932;BME280;39844;52.496;13.482;2022-12-10T09:48:00;100885.22;;;-0.32;86.33
53932;BME280;39844;52.496;13.482;2022-12-10T09:50:30;100881.88;;;-0.29;86.77
53932;BME280;39844;52.496;13.482;2022-12-10T09:52:59;100877.63;;;-0.29;86.68
53932;BME280;39844;52.496;13.482;2022-12-10T09:55:40;100877.66;;;-0.27;86.64
53932;BME280;39844;52.496;13.482;2022-12-10T09:58:24;100874.34;;;-0.25;86.85
53932;BME280;39844;52.496;13.482;2022-12-10T10:01:12;100876.09;;;-0.24;86.66
53932;BME280;39844;52.496;13.482;2022-12-10T10:03:40;100877.97;;;-0.20;87.18
53932;BME280;39844;52.496;13.482;2022-12-10T10:06:12;100872.00;;;-0.19;87.00
53932;BME280;39844;52.496;13.482;2022-12-10T10:08:41;100870.38;;;-0.17;87.11
53932;BME280;39844;52.496;13.482;2022-12-10T10:11:12;100877.16;;;-0.19;86.65
53932;BME280;39844;52.496;13.482;2022-12-10T10:13:50;100877.16;;;-0.19;86.86
53932;BME280;39844;52.496;13.482;2022-12-10T10:16:27;100871.19;;;-0.18;87.31
53932;BME280;39844;52.496;13.482;2022-12-10T10:19:06;100867.75;;;-0.18;86.64
53932;BME280;39844;52.496;13.482;2022-12-10T10:21:39;100878.91;;;-0.18;86.77
53932;BME280;39844;52.496;13.482;2022-12-10T10:24:06;100883.22;;;-0.18;86.38
53932;BME280;39844;52.496;13.482;2022-12-10T10:26:35;100870.31;;;-0.18;86.77
53932;BME280;39844;52.496;13.482;2022-12-10T10:29:05;100885.97;;;-0.14;86.90
53932;BME280;39844;52.496;13.482;2022-12-10T10:31:32;100876.78;;;-0.07;87.10
53932;BME280;39844;52.496;13.482;2022-12-10T10:34:04;100877.03;;;-0.01;87.24
53932;BME280;39844;52.496;13.482;2022-12-10T10:36:35;100876.28;;;0.02;86.42
53932;BME280;39844;52.496;13.482;2022-12-10T10:39:19;100872.91;;;0.03;85.81
53932;BME280;39844;52.496;13.482;2022-12-10T10:41:52;100876.53;;;0.08;86.57
53932;BME280;39844;52.496;13.482;2022-12-10T10:44:20;100881.69;;;0.08;85.68
53932;BME280;39844;52.496;13.482;2022-12-10T10:46:48;100865.34;;;0.07;85.13
53932;BME280;39844;52.496;13.482;2022-12-10T10:49:33;100870.53;;;0.09;85.83
53932;BME280;39844;52.496;13.482;2022-12-10T10:52:12;100855.91;;;0.08;85.27
53932;BME280;39844;52.496;13.482;2022-12-10T10:54:40;100861.81;;;0.05;85.01
53932;BME280;39844;52.496;13.482;2022-12-10T10:57:14;100848.97;;;0.07;85.99
53932;BME280;39844;52.496;13.482;2022-12-10T10:59:41;100849.91;;;0.09;85.79
53932;BME280;39844;52.496;13.482;2022-12-10T11:02:28;100849.16;;;0.11;86.21
53932;BME280;39844;52.496;13.482;2022-12-10T11:04:55;100850.97;;;0.14;86.18
53932;BME280;39844;52.496;13.482;2022-12-10T11:07:41;100849.44;;;0.19;86.50
53932;BME280;39844;52.496;13.482;2022-12-10T11:10:22;100842.63;;;0.21;85.92
53932;BME280;39844;52.496;13.482;2022-12-10T11:12:56;100846.09;;;0.21;86.18
53932;BME280;39844;52.496;13.482;2022-12-10T11:17:53;100849.56;;;0.22;86.43
53932;BME280;39844;52.496;13.482;2022-12-10T11:20:22;100841.78;;;0.20;86.34
53932;BME280;39844;52.496;13.482;2022-12-10T11:22:50;100847.91;;;0.24;87.19
53932;BME280;39844;52.496;13.482;2022-12-10T11:25:16;100840.06;;;0.21;85.95
53932;BME280;39844;52.496;13.482;2022-12-10T11:27:49;100839.97;;;0.18;85.72
53932;BME280;39844;52.496;13.482;2022-12-10T11:30:20;100851.03;;;0.15;86.39
53932;BME280;39844;52.496;13.482;2022-12-10T11:38:03;100838.22;;;0.18;85.83
53932;BME280;39844;52.496;13.482;2022-12-10T11:41:02;100832.09;;;0.15;85.87
53932;BME280;39844;52.496;13.482;2022-12-10T11:44:04;100833.75;;;0.13;85.94
53932;BME280;39844;52.496;13.482;2022-12-10T11:49:17;100830.31;;;0.14;86.03
53932;BME280;39844;52.496;13.482;2022-12-10T11:51:57;100841.66;;;0.17;86.35
53932;BME280;39844;52.496;13.482;2022-12-10T12:00:08;100837.38;;;0.18;86.31
53932;BME280;39844;52.496;13.482;2022-12-10T12:11:26;100845.59;;;0.08;85.98
53932;BME280;39844;52.496;13.482;2022-12-10T12:14:01;100841.94;;;0.03;85.38
53932;BME280;39844;52.496;13.482;2022-12-10T12:16:42;100845.44;;;0.05;86.26
53932;BME280;39844;52.496;13.482;2022-12-10T12:19:17;100860.19;;;0.07;86.59
53932;BME280;39844;52.496;13.482;2022-12-10T12:21:47;100854.19;;;0.08;86.30
53932;BME280;39844;52.496;13.482;2022-12-10T12:24:22;100860.19;;;0.07;85.95
53932;BME280;39844;52.496;13.482;2022-12-10T12:26:58;100852.25;;;0.03;85.83
53932;BME280;39844;52.496;13.482;2022-12-10T12:29:44;100857.22;;;-0.02;85.84
53932;BME280;39844;52.496;13.482;2022-12-10T12:32:25;100863.00;;;-0.08;85.99
53932;BME280;39844;52.496;13.482;2022-12-10T12:34:54;100856.91;;;-0.10;86.19
53932;BME280;39844;52.496;13.482;2022-12-10T12:37:30;100856.00;;;-0.10;86.53
53932;BME280;39844;52.496;13.482;2022-12-10T12:40:07;100857.66;;;-0.12;86.03
53932;BME280;39844;52.496;13.482;2022-12-10T12:42:49;100861.00;;;-0.15;86.11
53932;BME280;39844;52.496;13.482;2022-12-10T12:45:42;100857.47;;;-0.17;86.39
53932;BME280;39844;52.496;13.482;2022-12-10T12:48:32;100863.56;;;-0.15;86.91
53932;BME280;39844;52.496;13.482;2022-12-10T12:51:10;100865.34;;;-0.14;86.89
53932;BME280;39844;52.496;13.482;2022-12-10T12:53:36;100857.66;;;-0.12;86.62
53932;BME280;39844;52.496;13.482;2022-12-10T13:01:38;100859.31;;;-0.14;86.91
53932;BME280;39844;52.496;13.482;2022-12-10T13:04:05;100868.84;;;-0.12;87.56
53932;BME280;39844;52.496;13.482;2022-12-10T13:06:34;100861.94;;;-0.13;87.31
53932;BME280;39844;52.496;13.482;2022-12-10T13:11:39;100865.47;;;-0.11;87.21
53932;BME280;39844;52.496;13.482;2022-12-10T13:24:19;100878.25;;;-0.14;86.31
53932;BME280;39844;52.496;13.482;2022-12-10T13:27:18;100880.06;;;-0.11;87.10
53932;BME280;39844;52.496;13.482;2022-12-10T13:32:42;100885.22;;;-0.11;86.63
53932;BME280;39844;52.496;13.482;2022-12-10T13:37:36;100892.97;;;-0.11;86.99
53932;BME280;39844;52.496;13.482;2022-12-10T13:42:35;100887.63;;;-0.16;86.47
53932;BME280;39844;52.496;13.482;2022-12-10T13:45:16;100888.38;;;-0.18;86.47
53932;BME280;39844;52.496;13.482;2022-12-10T13:50:17;100899.50;;;-0.19;86.56
53932;BME280;39844;52.496;13.482;2022-12-10T14:08:33;100902.84;;;-0.22;86.74
53932;BME280;39844;52.496;13.482;2022-12-10T14:11:00;100889.88;;;-0.23;86.87
53932;BME280;39844;52.496;13.482;2022-12-10T14:13:35;100894.22;;;-0.22;87.08
53932;BME280;39844;52.496;13.482;2022-12-10T14:16:04;100908.03;;;-0.20;87.01
53932;BME280;39844;52.496;13.482;2022-12-10T14:18:30;100904.59;;;-0.21;87.24
53932;BME280;39844;52.496;13.482;2022-12-10T14:20:56;100904.59;;;-0.21;87.18
53932;BME280;39844;52.496;13.482;2022-12-10T14:23:28;100904.59;;;-0.21;87.56
53932;BME280;39844;52.496;13.482;2022-12-10T14:25:54;100905.47;;;-0.20;87.71
53932;BME280;39844;52.496;13.482;2022-12-10T14:28:19;100903.91;;;-0.17;88.11